createdAt,value
2023-05-05T00:00:49.902Z,65.3671
2023-05-05T00:01:52.355Z,64.7141
2023-05-05T00:02:54.866Z,65.1175
2023-05-05T00:03:57.574Z,65.0362
2023-05-05T00:05:00.008Z,63.7943
2023-05-05T00:06:02.459Z,64.0304
2023-05-05T00:07:04.909Z,62.9619
2023-05-05T00:08:07.577Z,61.0688
2023-05-05T00:09:10.054Z,60.9808
2023-05-05T00:10:12.486Z,62.8093
2023-05-05T00:11:15.259Z,64.7108
2023-05-05T00:12:17.761Z,65.7102
2023-05-05T00:13:20.364Z,66.3065
2023-05-05T00:14:22.811Z,66.8233
2023-05-05T00:15:25.289Z,66.9082
2023-05-05T00:16:28.047Z,67.4689
2023-05-05T00:17:30.516Z,67.9292
2023-05-05T00:18:33.019Z,68.5239
2023-05-05T00:19:35.473Z,68.6039
2023-05-05T00:20:37.953Z,67.9305
2023-05-05T00:21:40.429Z,66.7810
2023-05-05T00:22:42.930Z,66.9722
2023-05-05T00:23:45.406Z,67.2868
2023-05-05T00:24:47.902Z,67.3646
2023-05-05T00:25:50.773Z,66.6400
2023-05-05T00:26:53.276Z,66.5851
2023-05-05T00:27:55.783Z,67.0233
2023-05-05T00:28:58.280Z,67.4178
2023-05-05T00:30:00.780Z,67.2330
2023-05-05T00:31:03.283Z,67.1175
2023-05-05T00:32:05.787Z,67.2482
2023-05-05T00:33:08.353Z,67.4309
2023-05-05T00:34:10.898Z,66.9506
2023-05-05T00:35:13.392Z,67.6030
2023-05-05T00:36:15.861Z,67.6392
2023-05-05T00:37:18.371Z,68.1560
2023-05-05T00:38:21.101Z,67.9508
2023-05-05T00:39:23.613Z,68.0897
2023-05-05T00:40:26.134Z,68.1550
2023-05-05T00:41:28.681Z,67.4452
2023-05-05T00:42:31.202Z,67.8603
2023-05-05T00:43:33.766Z,67.4448
2023-05-05T00:44:36.306Z,67.5027
2023-05-05T00:45:38.796Z,67.4591
2023-05-05T00:46:41.435Z,68.0437
2023-05-05T00:47:43.941Z,68.1372
2023-05-05T00:48:46.419Z,68.7974
2023-05-05T00:49:48.916Z,68.9118
2023-05-05T00:50:51.388Z,69.2086
2023-05-05T00:51:53.840Z,69.4505
2023-05-05T00:52:56.317Z,69.7370
2023-05-05T00:53:58.823Z,70.0988
2023-05-05T00:55:01.318Z,70.4184
2023-05-05T00:56:03.762Z,70.4995
2023-05-05T00:57:06.219Z,70.7314
2023-05-05T00:58:08.686Z,70.9519
2023-05-05T00:59:11.148Z,70.8707
2023-05-05T01:00:13.631Z,71.3065
2023-05-05T01:01:16.100Z,71.3614
2023-05-05T01:02:18.539Z,71.4789
2023-05-05T01:03:21.051Z,71.7018
2023-05-05T01:04:23.550Z,71.7783
2023-05-05T01:05:25.974Z,71.8603
2023-05-05T01:06:28.462Z,72.1178
2023-05-05T01:07:30.907Z,72.2642
2023-05-05T01:08:33.373Z,72.5831
2023-05-05T01:09:35.893Z,72.3130
2023-05-05T01:10:38.325Z,71.5785
2023-05-05T01:11:40.824Z,70.9196
2023-05-05T01:12:43.333Z,69.7099
2023-05-05T01:13:45.797Z,69.1086
2023-05-05T01:14:48.268Z,70.0642
2023-05-05T01:15:50.773Z,70.8528
2023-05-05T01:16:53.197Z,70.9859
2023-05-05T01:17:55.699Z,71.5592
2023-05-05T01:18:58.185Z,71.6372
2023-05-05T01:20:00.745Z,72.3911
2023-05-05T01:21:03.224Z,72.0616
2023-05-05T01:22:05.700Z,72.2553
2023-05-05T01:23:08.178Z,72.1035
2023-05-05T01:24:10.917Z,72.5115
2023-05-05T01:25:13.364Z,73.0517
2023-05-05T01:26:15.788Z,73.4811
2023-05-05T01:27:18.257Z,73.6950
2023-05-05T01:28:20.739Z,73.9728
2023-05-05T01:29:23.242Z,74.4899
2023-05-05T01:30:25.709Z,74.6233
2023-05-05T01:31:28.248Z,74.7195
2023-05-05T01:32:30.716Z,74.8192
2023-05-05T01:33:33.109Z,74.5919
2023-05-05T01:34:35.628Z,74.9213
2023-05-05T01:35:38.075Z,75.3318
2023-05-05T01:36:40.528Z,75.4508
2023-05-05T01:37:43.020Z,75.2719
2023-05-05T01:38:45.711Z,75.4616
2023-05-05T01:39:48.166Z,75.5114
2023-05-05T01:40:50.635Z,75.1037
2023-05-05T01:41:53.066Z,75.3784
2023-05-05T01:42:55.565Z,75.2879
2023-05-05T01:43:58.038Z,75.3640
2023-05-05T01:45:00.509Z,75.5480
2023-05-05T01:46:03.236Z,75.3990
2023-05-05T01:47:05.741Z,75.4987
2023-05-05T01:48:08.189Z,75.3730
2023-05-05T01:49:10.648Z,75.3420
2023-05-05T01:50:13.112Z,74.5515
2023-05-05T01:51:15.573Z,73.8336
2023-05-05T01:52:18.044Z,73.2227
2023-05-05T01:53:20.740Z,72.7246
2023-05-05T01:54:23.185Z,72.6319
2023-05-05T01:55:25.645Z,72.2336
2023-05-05T01:56:28.366Z,71.8484
2023-05-05T01:57:30.815Z,71.0255
2023-05-05T01:58:33.517Z,70.2678
2023-05-05T01:59:36.014Z,70.5133
2023-05-05T02:00:38.494Z,70.0744
2023-05-05T02:01:41.057Z,70.6176
2023-05-05T02:02:43.576Z,70.5395
2023-05-05T02:03:46.128Z,70.3094
2023-05-05T02:04:48.600Z,69.7040
2023-05-05T02:05:51.388Z,69.9043
2023-05-05T02:06:53.837Z,70.3750
2023-05-05T02:07:56.329Z,70.4078
2023-05-05T02:08:58.838Z,70.0089
2023-05-05T02:10:01.357Z,67.0273
2023-05-05T02:11:03.915Z,64.1951
2023-05-05T02:12:06.416Z,64.5588
2023-05-05T02:13:09.016Z,66.4071
2023-05-05T02:14:11.762Z,67.5080
2023-05-05T02:15:14.281Z,65.7673
2023-05-05T02:16:16.901Z,66.3144
2023-05-05T02:17:19.472Z,66.7475
2023-05-05T02:18:21.949Z,67.0316
2023-05-05T02:19:22.321Z,67.4458
2023-05-05T02:20:24.848Z,67.6761
2023-05-05T02:21:27.684Z,67.1963
2023-05-05T02:22:30.140Z,67.6545
2023-05-05T02:23:32.683Z,68.6660
2023-05-05T02:24:35.170Z,68.0737
2023-05-05T02:25:37.638Z,68.4328
2023-05-05T02:26:40.400Z,69.0180
2023-05-05T02:27:42.872Z,69.0758
2023-05-05T02:28:45.633Z,69.0739
2023-05-05T02:29:48.080Z,69.6487
2023-05-05T02:30:50.745Z,70.1858
2023-05-05T02:31:53.472Z,70.4149
2023-05-05T02:32:55.979Z,71.1038
2023-05-05T02:33:58.782Z,71.6397
2023-05-05T02:35:01.254Z,71.2182
2023-05-05T02:36:03.959Z,70.8869
2023-05-05T02:37:06.411Z,70.5579
2023-05-05T02:38:08.823Z,71.4869
2023-05-05T02:39:11.585Z,71.8712
2023-05-05T02:40:14.063Z,71.9132
2023-05-05T02:41:16.824Z,72.0401
2023-05-05T02:42:19.244Z,72.4262
2023-05-05T02:43:21.733Z,72.9533
2023-05-05T02:44:24.533Z,73.0526
2023-05-05T02:45:26.937Z,73.4575
2023-05-05T02:46:29.700Z,74.0641
2023-05-05T02:47:32.147Z,74.3165
2023-05-05T02:48:34.620Z,74.7408
2023-05-05T02:49:37.314Z,74.8691
2023-05-05T02:50:39.812Z,74.1854
2023-05-05T02:51:42.275Z,74.1729
2023-05-05T02:52:44.719Z,74.2631
2023-05-05T02:53:47.165Z,74.6085
2023-05-05T02:54:49.595Z,74.8449
2023-05-05T02:55:52.061Z,75.1098
2023-05-05T02:56:54.490Z,75.5471
2023-05-05T02:57:56.917Z,75.7514
2023-05-05T02:58:59.381Z,75.8658
2023-05-05T03:00:01.835Z,75.8549
2023-05-05T03:01:04.296Z,75.9752
2023-05-05T03:02:07.079Z,76.0576
2023-05-05T03:03:09.595Z,75.8715
2023-05-05T03:04:12.072Z,75.7386
2023-05-05T03:05:14.481Z,75.9700
2023-05-05T03:06:17.046Z,76.0196
2023-05-05T03:07:19.499Z,75.3648
2023-05-05T03:08:21.916Z,74.8558
2023-05-05T03:09:24.394Z,75.1742
2023-05-05T03:10:26.841Z,75.7593
2023-05-05T03:11:29.300Z,76.3268
2023-05-05T03:12:31.779Z,76.7260
2023-05-05T03:13:34.189Z,76.1361
2023-05-05T03:14:36.661Z,76.2007
2023-05-05T03:15:39.111Z,76.6688
2023-05-05T03:16:41.638Z,76.5479
2023-05-05T03:17:44.142Z,76.5481
2023-05-05T03:18:46.602Z,76.3344
2023-05-05T03:19:49.062Z,76.5196
2023-05-05T03:20:51.491Z,75.4899
2023-05-05T03:21:53.949Z,74.5213
2023-05-05T03:22:56.380Z,74.1659
2023-05-05T03:23:58.836Z,73.0062
2023-05-05T03:25:01.287Z,72.4462
2023-05-05T03:26:03.739Z,72.6025
2023-05-05T03:27:06.389Z,72.9077
2023-05-05T03:28:08.804Z,73.4503
2023-05-05T03:29:11.234Z,72.9692
2023-05-05T03:30:13.665Z,72.1363
2023-05-05T03:31:16.152Z,71.7529
2023-05-05T03:32:18.601Z,71.0939
2023-05-05T03:33:21.017Z,70.7624
2023-05-05T03:34:23.487Z,70.5368
2023-05-05T03:35:25.929Z,71.2966
2023-05-05T03:36:29.502Z,71.1341
2023-05-05T03:37:32.018Z,71.2136
2023-05-05T03:38:34.566Z,71.9244
2023-05-05T03:39:36.986Z,71.8227
2023-05-05T03:40:44.196Z,71.8897
2023-05-05T03:41:40.710Z,71.8205
2023-05-05T03:42:43.152Z,71.5734
2023-05-05T03:43:45.816Z,71.5789
2023-05-05T03:44:48.294Z,71.1806
2023-05-05T03:45:50.781Z,70.5557
2023-05-05T03:46:51.116Z,70.3007
2023-05-05T03:47:53.609Z,70.1613
2023-05-05T03:48:56.399Z,70.4828
2023-05-05T03:49:58.816Z,71.0382
2023-05-05T03:51:01.273Z,71.1600
2023-05-05T03:52:04.078Z,71.6550
2023-05-05T03:53:06.543Z,70.6749
2023-05-05T03:54:09.314Z,70.2887
2023-05-05T03:55:11.750Z,70.4073
2023-05-05T03:56:14.224Z,70.0304
2023-05-05T03:57:17.015Z,70.3167
2023-05-05T03:58:19.420Z,71.1026
2023-05-05T03:59:21.862Z,70.9595
2023-05-05T04:00:24.330Z,70.2962
2023-05-05T04:01:27.049Z,69.7853
2023-05-05T04:02:29.591Z,68.8642
2023-05-05T04:03:32.164Z,68.6479
2023-05-05T04:04:34.791Z,68.3625
2023-05-05T04:05:37.323Z,68.3507
2023-05-05T04:06:39.816Z,68.6867
2023-05-05T04:07:42.279Z,69.0589
2023-05-05T04:08:44.757Z,69.1951
2023-05-05T04:09:47.222Z,69.5331
2023-05-05T04:10:49.736Z,69.7706
2023-05-05T04:11:52.224Z,70.5232
2023-05-05T04:12:54.683Z,72.1560
2023-05-05T04:13:57.115Z,75.4509
2023-05-05T04:14:59.635Z,76.6287
2023-05-05T04:16:02.120Z,75.8992
2023-05-05T04:17:04.607Z,75.1621
2023-05-05T04:18:07.104Z,75.2532
2023-05-05T04:19:09.570Z,75.6909
2023-05-05T04:20:12.047Z,75.7231
2023-05-05T04:21:14.492Z,75.2045
2023-05-05T04:22:16.937Z,75.2374
2023-05-05T04:23:19.380Z,74.7511
2023-05-05T04:24:21.831Z,74.8809
2023-05-05T04:25:24.285Z,74.4984
2023-05-05T04:26:26.711Z,72.7739
2023-05-05T04:27:29.228Z,70.6687
2023-05-05T04:28:31.661Z,71.3944
2023-05-05T04:29:34.152Z,70.6283
2023-05-05T04:30:36.636Z,69.2041
2023-05-05T04:31:39.114Z,68.4889
2023-05-05T04:32:41.539Z,69.9009
2023-05-05T04:33:44.105Z,71.4164
2023-05-05T04:34:46.609Z,70.5148
2023-05-05T04:35:49.028Z,69.1481
2023-05-05T04:36:51.478Z,67.3583
2023-05-05T04:37:53.904Z,64.0404
2023-05-05T04:38:56.433Z,68.0173
2023-05-05T04:39:58.900Z,70.9228
2023-05-05T04:41:01.358Z,68.9135
2023-05-05T04:42:03.867Z,67.3970
2023-05-05T04:43:06.276Z,67.7316
2023-05-05T04:44:08.745Z,67.8907
2023-05-05T04:45:11.169Z,68.4717
2023-05-05T04:46:13.691Z,68.9182
2023-05-05T04:47:16.429Z,69.8267
2023-05-05T04:48:18.905Z,70.2833
2023-05-05T04:49:21.411Z,71.4584
2023-05-05T04:50:23.835Z,71.5778
2023-05-05T04:51:26.296Z,72.3138
2023-05-05T04:52:28.781Z,73.6596
2023-05-05T04:53:31.234Z,74.0535
2023-05-05T04:54:33.729Z,74.0454
2023-05-05T04:55:36.167Z,73.7818
2023-05-05T04:56:38.641Z,72.1277
2023-05-05T04:57:41.114Z,70.3815
2023-05-05T04:58:43.575Z,69.0161
2023-05-05T04:59:46.035Z,68.7193
2023-05-05T05:00:48.500Z,67.4676
2023-05-05T05:01:51.185Z,67.3018
2023-05-05T05:02:53.715Z,66.2751
2023-05-05T05:03:56.224Z,64.3525
2023-05-05T05:04:58.670Z,64.4577
2023-05-05T05:06:01.108Z,64.6982
2023-05-05T05:07:03.619Z,66.6214
2023-05-05T05:08:06.026Z,67.3873
2023-05-05T05:09:08.498Z,67.2819
2023-05-05T05:10:11.108Z,69.9147
2023-05-05T05:11:13.657Z,73.0459
2023-05-05T05:12:16.145Z,72.8279
2023-05-05T05:13:18.747Z,73.2360
2023-05-05T05:14:21.252Z,73.8757
2023-05-05T05:15:23.719Z,73.7650
2023-05-05T05:16:26.347Z,73.9499
2023-05-05T05:17:28.839Z,74.3721
2023-05-05T05:18:31.286Z,74.4258
2023-05-05T05:19:33.752Z,73.2282
2023-05-05T05:20:36.218Z,72.1499
2023-05-05T05:21:38.665Z,74.1772
2023-05-05T05:22:41.150Z,73.6368
2023-05-05T05:23:43.606Z,74.8477
2023-05-05T05:24:46.188Z,75.8020
2023-05-05T05:25:48.674Z,76.4072
2023-05-05T05:26:50.891Z,76.5360
2023-05-05T05:28:06.131Z,77.1502
2023-05-05T05:28:54.398Z,76.6460
2023-05-05T05:29:57.083Z,77.2289
2023-05-05T05:30:59.550Z,77.6576
2023-05-05T05:32:02.106Z,77.3188
2023-05-05T05:33:04.539Z,77.6671
2023-05-05T05:34:04.895Z,77.6004
2023-05-05T05:35:07.370Z,75.7733
2023-05-05T05:36:09.817Z,75.3417
2023-05-05T05:37:12.512Z,76.0978
2023-05-05T05:38:14.991Z,76.5525
2023-05-05T05:39:17.670Z,75.4746
2023-05-05T05:40:20.098Z,75.4252
2023-05-05T05:41:22.584Z,75.8270
2023-05-05T05:42:25.251Z,76.1871
2023-05-05T05:43:27.726Z,74.9485
2023-05-05T05:44:30.430Z,74.0696
2023-05-05T05:45:32.910Z,74.5088
2023-05-05T05:46:35.452Z,74.0317
2023-05-05T05:47:38.232Z,74.7413
2023-05-05T05:48:40.694Z,74.4603
2023-05-05T05:49:43.383Z,74.8403
2023-05-05T05:50:45.990Z,75.2031
2023-05-05T05:51:48.420Z,75.4675
2023-05-05T05:52:50.838Z,75.5382
2023-05-05T05:53:53.361Z,75.1883
2023-05-05T05:54:55.780Z,73.8208
2023-05-05T05:55:58.263Z,72.4407
2023-05-05T05:57:00.826Z,72.5199
2023-05-05T05:58:03.257Z,72.5492
2023-05-05T05:59:05.712Z,71.5419
2023-05-05T06:00:08.669Z,69.8758
2023-05-05T06:01:11.379Z,70.3289
2023-05-05T06:02:14.176Z,70.7780
2023-05-05T06:03:16.868Z,69.9930
2023-05-05T06:04:19.678Z,69.8946
2023-05-05T06:05:22.125Z,70.1146
2023-05-05T06:06:24.583Z,69.7704
2023-05-05T06:07:30.688Z,69.6579
2023-05-05T06:08:33.150Z,68.0072
2023-05-05T06:09:35.922Z,69.0632
2023-05-05T06:10:38.357Z,69.9455
2023-05-05T06:11:40.798Z,69.3627
2023-05-05T06:12:43.439Z,67.6802
2023-05-05T06:13:45.884Z,65.2043
2023-05-05T06:14:48.590Z,64.3754
2023-05-05T06:15:51.096Z,63.4063
2023-05-05T06:16:53.619Z,68.9485
2023-05-05T06:17:56.061Z,64.3522
2023-05-05T06:18:58.536Z,63.0367
2023-05-05T06:20:01.348Z,64.3097
2023-05-05T06:21:03.802Z,62.5460
2023-05-05T06:22:06.281Z,61.9434
2023-05-05T06:23:08.742Z,59.6242
2023-05-05T06:24:11.243Z,57.5182
2023-05-05T06:25:13.927Z,58.1372
2023-05-05T06:26:16.418Z,58.6945
2023-05-05T06:27:18.884Z,57.5180
2023-05-05T06:28:21.353Z,57.7444
2023-05-05T06:29:23.958Z,60.3502
2023-05-05T06:30:26.449Z,58.5288
2023-05-05T06:31:28.977Z,57.8216
2023-05-05T06:32:31.435Z,56.3451
2023-05-05T06:33:33.881Z,57.5477
2023-05-05T06:34:36.617Z,57.8009
2023-05-05T06:35:39.044Z,58.2160
2023-05-05T06:36:41.604Z,59.1017
2023-05-05T06:37:44.392Z,58.7669
2023-05-05T06:38:46.828Z,57.5256
2023-05-05T06:39:49.314Z,57.2763
2023-05-05T06:40:51.796Z,57.2695
2023-05-05T06:41:54.271Z,55.5454
2023-05-05T06:42:56.669Z,56.8443
2023-05-05T06:43:59.103Z,58.7816
2023-05-05T06:45:01.902Z,62.8210
2023-05-05T06:46:04.327Z,62.7940
2023-05-05T06:47:06.837Z,60.1464
2023-05-05T06:48:09.335Z,58.8407
2023-05-05T06:49:11.766Z,60.0429
2023-05-05T06:50:14.277Z,60.8094
2023-05-05T06:51:16.756Z,58.9072
2023-05-05T06:52:19.242Z,57.2681
2023-05-05T06:53:21.701Z,55.4508
2023-05-05T06:54:24.198Z,58.6940
2023-05-05T06:55:26.875Z,55.5230
2023-05-05T06:56:29.364Z,52.8161
2023-05-05T06:57:31.880Z,53.5991
2023-05-05T06:58:34.358Z,54.1948
2023-05-05T06:59:36.837Z,54.1784
2023-05-05T07:00:39.412Z,53.3286
2023-05-05T07:01:41.895Z,53.3428
2023-05-05T07:02:42.702Z,53.9044
2023-05-05T07:03:45.284Z,53.4709
2023-05-05T07:04:48.026Z,54.2315
2023-05-05T07:05:50.523Z,55.0317
2023-05-05T07:06:53.005Z,53.8135
2023-05-05T07:07:55.503Z,53.2918
2023-05-05T07:08:57.976Z,52.6971
2023-05-05T07:10:00.483Z,53.3804
2023-05-05T07:11:02.960Z,55.9949
2023-05-05T07:12:05.412Z,54.1755
2023-05-05T07:13:07.977Z,56.0192
2023-05-05T07:14:10.535Z,55.0915
2023-05-05T07:15:26.933Z,52.9314
2023-05-05T07:16:14.190Z,50.9285
2023-05-05T07:17:16.693Z,52.7135
2023-05-05T07:18:19.200Z,53.9887
2023-05-05T07:19:21.717Z,53.8748
2023-05-05T07:20:24.445Z,51.9112
2023-05-05T07:21:27.081Z,53.2894
2023-05-05T07:22:29.623Z,58.4174
2023-05-05T07:23:32.163Z,54.5164
2023-05-05T07:24:34.604Z,51.7131
2023-05-05T07:25:37.119Z,52.0151
2023-05-05T07:26:39.612Z,56.2990
2023-05-05T07:28:42.438Z,54.6120
2023-05-05T07:29:44.957Z,54.2212
2023-05-05T07:30:47.482Z,53.8146
2023-05-05T07:31:50.040Z,53.2254
2023-05-05T07:32:52.541Z,55.8894
2023-05-05T07:33:55.001Z,53.6872
2023-05-05T07:34:57.507Z,55.8777
2023-05-05T07:36:00.457Z,56.1148
2023-05-05T07:37:02.957Z,54.8749
2023-05-05T07:38:05.652Z,50.9257
2023-05-05T07:39:08.448Z,55.0165
2023-05-05T07:40:11.145Z,53.5716
2023-05-05T07:41:13.787Z,52.2061
2023-05-05T07:42:16.282Z,51.3733
2023-05-05T07:43:18.810Z,51.4367
2023-05-05T07:44:21.344Z,55.6341
2023-05-05T07:45:24.112Z,57.3828
2023-05-05T07:46:26.678Z,57.2615
2023-05-05T07:47:29.200Z,57.9407
2023-05-05T07:48:31.666Z,55.1814
2023-05-05T07:49:34.411Z,56.0541
2023-05-05T07:51:40.541Z,53.3902
2023-05-05T07:52:48.416Z,55.7462
2023-05-05T07:53:44.152Z,54.9422
2023-05-05T07:54:46.685Z,55.5040
2023-05-05T07:55:49.405Z,58.7755
2023-05-05T07:56:51.975Z,59.7052
2023-05-05T07:57:54.896Z,58.4636
2023-05-05T07:58:57.409Z,55.3366
2023-05-05T08:00:07.557Z,55.9832
2023-05-05T08:01:10.208Z,53.6417
2023-05-05T08:03:13.023Z,53.2434
2023-05-05T08:04:15.595Z,49.6065
2023-05-05T08:05:18.151Z,52.0059
2023-05-05T08:06:20.655Z,55.4568
2023-05-05T08:07:23.527Z,54.7948
2023-05-05T08:08:26.081Z,51.0947
2023-05-05T08:09:28.557Z,49.5584
2023-05-05T08:10:31.323Z,49.4422
2023-05-05T08:11:33.864Z,49.0657
2023-05-05T08:12:36.327Z,49.9866
2023-05-05T08:13:38.836Z,50.0720
2023-05-05T08:14:41.350Z,51.4108
2023-05-05T08:15:44.062Z,50.6485
2023-05-05T08:16:46.558Z,51.6922
2023-05-05T08:17:49.492Z,48.9588
2023-05-05T08:18:52.195Z,49.7575
2023-05-05T08:19:54.678Z,48.8764
2023-05-05T08:20:57.160Z,47.4243
2023-05-05T08:22:01.205Z,47.3865
2023-05-05T08:23:00.322Z,45.7233
2023-05-05T08:24:02.782Z,49.4551
2023-05-05T08:25:05.415Z,49.5532
2023-05-05T08:27:08.187Z,51.6233
2023-05-05T08:28:10.681Z,48.9751
2023-05-05T08:30:14.119Z,49.4168
2023-05-05T08:31:16.635Z,46.3769
2023-05-05T08:32:19.128Z,47.2742
2023-05-05T08:33:21.624Z,47.1567
2023-05-05T08:34:24.113Z,46.4870
2023-05-05T08:35:26.611Z,44.9358
2023-05-05T08:36:29.103Z,47.8088
2023-05-05T08:37:31.672Z,53.2579
2023-05-05T08:38:34.146Z,51.1079
2023-05-05T08:39:36.637Z,52.4382
2023-05-05T08:40:39.147Z,46.2471
2023-05-05T08:41:41.647Z,47.3621
2023-05-05T08:42:44.155Z,47.6513
2023-05-05T08:43:46.652Z,49.7633
2023-05-05T08:44:49.641Z,50.8124
2023-05-05T08:45:52.155Z,51.7618
2023-05-05T08:46:54.694Z,51.1552
2023-05-05T08:47:57.168Z,49.6010
2023-05-05T08:48:59.672Z,52.5685
2023-05-05T08:50:02.283Z,51.6426
2023-05-05T08:51:05.670Z,51.7694
2023-05-05T08:52:08.256Z,51.8716
2023-05-05T08:53:10.742Z,53.0511
2023-05-05T08:54:13.245Z,52.3769
2023-05-05T08:55:15.826Z,51.3702
2023-05-05T08:57:18.689Z,52.5421
2023-05-05T08:58:21.188Z,50.1978
2023-05-05T08:59:23.672Z,47.3829
2023-05-05T09:00:26.164Z,48.7924
2023-05-05T09:02:29.511Z,48.1194
2023-05-05T09:03:32.040Z,48.8641
2023-05-05T09:04:34.614Z,46.9948
2023-05-05T09:05:37.356Z,46.7882
2023-05-05T09:06:39.805Z,47.0412
2023-05-05T09:07:42.312Z,47.6949
2023-05-05T09:08:44.596Z,47.4278
2023-05-05T09:09:47.072Z,48.1270
2023-05-05T09:10:52.929Z,48.5556
2023-05-05T09:11:55.487Z,49.9821
2023-05-05T09:12:57.989Z,50.7281
2023-05-05T09:14:00.494Z,48.9538
2023-05-05T09:15:02.996Z,49.1483
2023-05-05T09:16:05.525Z,47.8180
2023-05-05T09:17:08.002Z,50.1610
2023-05-05T09:18:10.572Z,50.3436
2023-05-05T09:19:13.019Z,48.4476
2023-05-05T09:20:15.519Z,48.9676
2023-05-05T09:21:18.003Z,48.0779
2023-05-05T09:22:20.492Z,50.2296
2023-05-05T09:23:22.991Z,51.0680
2023-05-05T09:24:25.485Z,48.1532
2023-05-05T09:25:27.978Z,47.3397
2023-05-05T09:26:30.486Z,47.2569
2023-05-05T09:27:32.986Z,49.5408
2023-05-05T09:28:35.490Z,50.3516
2023-05-05T09:29:38.002Z,49.2518
2023-05-05T09:30:40.269Z,49.1827
2023-05-05T09:31:42.769Z,45.2130
2023-05-05T09:32:43.849Z,46.4273
2023-05-05T09:34:47.003Z,45.2353
2023-05-05T09:35:49.239Z,48.0465
2023-05-05T09:36:51.743Z,47.7500
2023-05-05T09:37:54.235Z,47.3834
2023-05-05T09:38:58.780Z,46.5735
2023-05-05T09:39:57.487Z,45.6867
2023-05-05T09:40:59.970Z,44.1935
2023-05-05T09:42:02.437Z,46.3801
2023-05-05T09:43:04.962Z,45.9570
2023-05-05T09:44:07.461Z,44.2841
2023-05-05T09:45:10.109Z,44.9663
2023-05-05T09:46:12.662Z,44.4593
2023-05-05T09:47:28.539Z,45.6910
2023-05-05T09:48:16.498Z,47.4401
2023-05-05T09:49:18.998Z,46.7429
2023-05-05T09:50:21.492Z,46.0679
2023-05-05T09:51:23.950Z,45.5964
2023-05-05T09:52:26.502Z,47.2172
2023-05-05T09:53:28.980Z,48.1695
2023-05-05T09:54:31.487Z,48.3937
2023-05-05T09:55:34.324Z,46.9265
2023-05-05T09:56:36.834Z,44.7171
2023-05-05T09:57:39.372Z,43.8874
2023-05-05T09:58:41.967Z,44.6739
2023-05-05T09:59:44.477Z,45.2892
2023-05-05T10:00:46.989Z,46.3354
2023-05-05T10:01:49.510Z,48.1319
2023-05-05T10:02:52.034Z,48.5075
2023-05-05T10:03:54.516Z,46.0133
2023-05-05T10:04:57.144Z,46.5857
2023-05-05T10:05:59.674Z,47.6178
2023-05-05T10:07:02.179Z,47.6478
2023-05-05T10:08:04.679Z,46.9322
2023-05-05T10:09:07.177Z,45.0993
2023-05-05T10:10:09.862Z,45.7222
2023-05-05T10:11:12.640Z,48.5971
2023-05-05T10:12:15.357Z,47.7814
2023-05-05T10:13:17.944Z,49.7783
2023-05-05T10:14:20.551Z,46.4891
2023-05-05T10:15:23.047Z,46.4564
2023-05-05T10:16:26.796Z,44.6571
2023-05-05T10:17:26.287Z,44.4068
2023-05-05T10:18:28.782Z,45.4839
2023-05-05T10:19:31.265Z,44.0112
2023-05-05T10:20:33.795Z,46.1911
2023-05-05T10:21:36.283Z,47.6273
2023-05-05T10:22:38.933Z,46.3278
2023-05-05T10:23:41.418Z,45.5760
2023-05-05T10:24:43.915Z,43.6405
2023-05-05T10:25:46.434Z,41.7065
2023-05-05T10:26:48.921Z,43.0414
2023-05-05T10:27:51.694Z,43.1954
2023-05-05T10:28:54.176Z,42.6972
2023-05-05T10:29:56.699Z,48.1666
2023-05-05T10:30:59.202Z,48.2504
2023-05-05T10:32:08.739Z,48.9460
2023-05-05T10:33:27.249Z,49.8119
2023-05-05T10:34:08.464Z,49.7059
2023-05-05T10:35:10.979Z,48.8098
2023-05-05T10:36:13.533Z,46.3411
2023-05-05T10:37:15.996Z,47.9856
2023-05-05T10:38:18.531Z,47.5617
2023-05-05T10:39:21.010Z,47.2649
2023-05-05T10:40:23.555Z,48.5277
2023-05-05T10:41:26.192Z,49.2934
2023-05-05T10:42:28.975Z,48.5239
2023-05-05T10:43:31.497Z,48.9171
2023-05-05T10:44:33.985Z,48.2407
2023-05-05T10:45:36.570Z,45.5824
2023-05-05T10:46:39.175Z,45.4718
2023-05-05T10:47:41.700Z,44.3406
2023-05-05T10:48:44.273Z,47.7239
2023-05-05T10:49:46.782Z,48.2142
2023-05-05T10:50:49.288Z,47.9924
2023-05-05T10:52:52.011Z,47.4252
2023-05-05T10:54:02.225Z,45.5070
2023-05-05T10:55:04.705Z,48.2830
2023-05-05T10:56:07.187Z,48.2655
2023-05-05T10:57:09.714Z,48.2601
2023-05-05T10:58:12.239Z,46.3256
2023-05-05T10:59:15.569Z,46.4447
2023-05-05T11:00:18.104Z,46.6098
2023-05-05T11:01:20.688Z,46.1702
2023-05-05T11:02:23.343Z,48.1285
2023-05-05T11:03:23.397Z,49.7520
2023-05-05T11:04:25.987Z,48.6896
2023-05-05T11:05:28.457Z,47.3544
2023-05-05T11:06:31.172Z,46.1935
2023-05-05T11:07:33.671Z,47.6424
2023-05-05T11:08:36.149Z,46.0997
2023-05-05T11:09:38.667Z,46.6318
2023-05-05T11:10:41.135Z,48.2743
2023-05-05T11:11:43.791Z,46.3177
2023-05-05T11:12:46.350Z,48.0788
2023-05-05T11:13:49.049Z,44.3815
2023-05-05T11:14:51.628Z,46.0522
2023-05-05T11:15:54.235Z,47.0389
2023-05-05T11:16:56.949Z,44.5299
2023-05-05T11:17:59.597Z,42.4244
2023-05-05T11:19:02.111Z,42.5302
2023-05-05T11:20:04.670Z,42.3208
2023-05-05T11:21:07.168Z,41.1118
2023-05-05T11:22:09.672Z,42.2440
2023-05-05T11:23:14.003Z,42.7431
2023-05-05T11:24:14.962Z,41.9510
2023-05-05T11:25:18.255Z,39.9503
2023-05-05T11:26:26.008Z,40.7125
2023-05-05T11:27:21.180Z,44.4453
2023-05-05T11:28:23.729Z,42.4651
2023-05-05T11:29:26.222Z,40.6353
2023-05-05T11:30:29.409Z,44.3087
2023-05-05T11:31:32.029Z,44.0551
2023-05-05T11:32:34.604Z,40.9444
2023-05-05T11:33:37.099Z,42.7240
2023-05-05T11:34:39.599Z,42.2605
2023-05-05T11:35:42.082Z,42.7766
2023-05-05T11:36:44.589Z,43.9680
2023-05-05T11:37:47.093Z,43.5077
2023-05-05T11:38:49.585Z,44.1232
2023-05-05T11:39:52.075Z,42.6489
2023-05-05T11:40:54.783Z,44.0513
2023-05-05T11:41:57.241Z,46.1345
2023-05-05T11:42:59.733Z,44.1169
2023-05-05T11:44:02.240Z,42.7153
2023-05-05T11:45:04.724Z,40.2693
2023-05-05T11:46:07.262Z,42.2879
2023-05-05T11:47:09.726Z,42.8910
2023-05-05T11:48:12.532Z,42.3443
2023-05-05T11:49:14.998Z,43.2607
2023-05-05T11:50:17.738Z,41.0359
2023-05-05T11:51:20.257Z,40.8909
2023-05-05T11:52:22.750Z,40.5952
2023-05-05T11:53:25.295Z,40.5326
2023-05-05T11:54:27.829Z,41.9180
2023-05-05T11:55:30.287Z,43.2459
2023-05-05T11:56:32.798Z,42.8111
2023-05-05T11:57:35.286Z,41.8889
2023-05-05T11:58:37.791Z,43.0459
2023-05-05T11:59:40.290Z,46.0229
2023-05-05T12:00:42.799Z,44.4069
2023-05-05T12:01:45.308Z,42.4249
2023-05-05T12:02:47.862Z,43.9498
2023-05-05T12:03:50.746Z,43.1569
2023-05-05T12:04:53.380Z,40.7570
2023-05-05T12:05:56.032Z,40.5117
2023-05-05T12:06:58.461Z,40.7192
2023-05-05T12:08:00.936Z,42.5475
2023-05-05T12:09:03.409Z,40.8636
2023-05-05T12:10:05.966Z,42.0038
2023-05-05T12:11:08.458Z,40.6706
2023-05-05T12:12:10.946Z,39.2110
2023-05-05T12:13:13.468Z,38.1605
2023-05-05T12:14:16.103Z,42.2745
2023-05-05T12:15:18.560Z,40.5032
2023-05-05T12:16:21.147Z,39.7391
2023-05-05T12:17:23.625Z,41.9979
2023-05-05T12:18:26.085Z,40.5754
2023-05-05T12:19:28.579Z,42.0172
2023-05-05T12:20:31.076Z,41.7355
2023-05-05T12:21:33.566Z,39.6870
2023-05-05T12:22:36.118Z,37.7365
2023-05-05T12:23:38.627Z,41.5447
2023-05-05T12:24:41.104Z,40.4869
2023-05-05T12:25:43.559Z,40.3172
2023-05-05T12:26:46.066Z,40.8171
2023-05-05T12:27:48.534Z,40.0373
2023-05-05T12:28:51.057Z,39.9621
2023-05-05T12:29:53.541Z,39.0931
2023-05-05T12:30:56.053Z,41.4040
2023-05-05T12:31:58.600Z,39.3102
2023-05-05T12:33:01.165Z,40.2295
2023-05-05T12:34:03.650Z,40.9040
2023-05-05T12:35:06.155Z,40.9208
2023-05-05T12:36:08.621Z,39.7440
2023-05-05T12:37:11.138Z,41.6267
2023-05-05T12:38:13.599Z,42.8735
2023-05-05T12:39:16.100Z,41.4778
2023-05-05T12:40:18.650Z,41.9236
2023-05-05T12:41:21.159Z,40.5362
2023-05-05T12:42:23.626Z,38.6416
2023-05-05T12:43:26.140Z,41.1410
2023-05-05T12:44:28.468Z,39.5366
2023-05-05T12:45:31.282Z,40.7573